Latest Coastal Weather Observations for Cape Moreton

IDQ60701

Issued at 1:12 am EST Thursday 11 August 2022 (issued every 10 minutes, with the page automatically refreshed every 10 minutes)

About coastal observations | Map of coastal stations | Coastal observations for QLD | Marine services | Other Formats
Station Details ID: 040043 Name: CAPE MORETON LIGHTHOUSE Lat: -27.03 Lon: 153.47 Height: 99.9 m
Data from the previous 72 hours. | See also: Recent months at Cape Moreton
Date/Time
EST
Wind Sea
Height
m
Swell Vis
km
Cloud Weather Temp
°C
Press
MSL
hPa
Rain since
9am
mm
Dir  Spd
kts
Gust
kts
Height
m
Period
s
Dir
11/01:00am SSW 12 16 - - - - - - - 14.8 1023.7 0.0
11/12:30am SSW 13 17 - - - - - - - 15.1 1023.7 0.0
11/12:00am SSE 16 21 - - - - - - - 16.0 1023.8 0.0
 
Date/Time
EST
Wind Sea
Height
m
Swell Vis
km
Cloud Weather Temp
°C
Press
MSL
hPa
Rain since
9am
mm
Dir  Spd
kts
Gust
kts
Height
m
Period
s
Dir
10/11:54pm SE 18 23 - - - - - - - 16.5 1023.8 0.0
10/11:40pm SE 21 28 - - - - - - - 16.4 1023.5 0.0
10/11:30pm SSE 17 23 - - - - - - - 16.5 1023.4 0.0
10/11:00pm S 14 27 - - - - - - - 16.0 1023.7 0.0
10/10:30pm S 13 16 - - - - - - - 16.0 1024.2 0.0
10/10:27pm S 13 17 - - - - - - - 16.1 1024.3 0.0
10/10:00pm SSE 20 27 - - - - - - - 17.0 1024.1 0.0
10/09:30pm SSE 22 27 - - - - - - - 17.0 1024.4 0.0
10/09:00pm SSE 23 29 - - - - - - - 16.9 1024.1 0.0
10/08:30pm SSE 25 31 - - - - - - - 16.8 1023.7 0.0
10/08:00pm SSE 26 32 - - - - - - - 16.8 1023.7 0.0
10/07:30pm SSE 26 33 - - - - - - - 16.7 1023.4 0.0
10/07:00pm SSE 27 33 - - - - - - - 16.8 1023.6 0.0
10/06:30pm SSE 25 31 - - - - - - - 16.7 1023.0 0.0
10/06:00pm SE 26 32 - - - - - - - 16.8 1022.6 0.0
10/05:30pm SSE 28 32 - - - - - - - 16.7 1022.3 0.0
10/05:00pm SSE 26 32 - - - - - - - 16.9 1022.5 0.0
10/04:30pm SSE 25 29 - - - - - - - 17.1 1022.5 0.0
10/04:00pm SSE 23 30 - - - - - - - 17.1 1022.7 0.0
10/03:30pm SSE 20 27 - - - - - - - 17.2 1022.8 0.0
10/03:00pm SSE 21 29 - - - - - - - 17.2 1022.8 0.0
10/02:30pm SSE 23 30 - - - - - - - 17.3 1023.0 0.0
10/02:00pm SSE 23 31 - - - - - - - 17.3 1023.1 0.0
10/01:30pm SSE 23 30 - - - - - - - 17.6 1023.2 0.0
10/01:00pm SSE 25 33 - - - - - - - 17.6 1022.9 0.0
10/12:30pm SSE 25 34 - - - - - - - 17.7 1023.2 0.0
10/12:00pm SSE 23 31 - - - - - - - 17.4 1023.5 0.0
10/11:30am SSE 22 28 - - - - - - - 17.4 1023.9 0.0
10/11:00am SSE 19 28 - - - - - - - 17.4 1024.1 0.0
10/10:30am S 14 19 - - - - - - - 16.4 1024.7 0.0
10/10:00am S 14 19 - - - - - - - 16.5 1024.6 0.0
10/09:30am S 15 21 - - - - - - - 16.1 1024.4 0.0
10/09:00am S 15 21 - - - - - - - 15.8 1024.3 0.0
10/08:30am SSW 13 17 - - - - - - - 14.9 1024.0 0.0
10/08:00am SSW 12 19 - - - - - - - 13.8 1023.8 0.0
10/07:30am SSW 14 19 - - - - - - - 13.4 1023.5 0.0
10/07:00am SSW 15 20 - - - - - - - 12.8 1023.2 0.0
10/06:30am SSW 14 19 - - - - - - - 12.4 1022.7 0.0
10/06:00am SSW 15 18 - - - - - - - 12.7 1022.4 0.0
10/05:30am SSW 15 21 - - - - - - - 12.5 1022.0 0.0
10/05:00am SSW 15 19 - - - - - - - 12.5 1021.3 0.0
10/04:30am SSW 14 18 - - - - - - - 12.7 1021.1 0.0
10/04:00am SSW 16 20 - - - - - - - 13.1 1021.1 0.0
10/03:30am SSW 16 21 - - - - - - - 13.1 1021.2 0.0
10/03:00am SSW 15 20 - - - - - - - 13.3 1021.2 0.0
10/02:30am SW 15 20 - - - - - - - 13.4 1021.2 0.0
10/02:00am SSW 15 23 - - - - - - - 14.1 1021.3 0.0
10/01:54am S 16 26 - - - - - - - 14.2 1021.4 0.0
10/01:30am S 15 23 - - - - - - - 14.6 1021.4 0.0
10/01:00am SSW 14 21 - - - - - - - 14.8 1021.5 0.0
10/12:54am S 17 22 - - - - - - - 15.0 1021.5 0.0
10/12:30am SSE 20 27 - - - - - - - 15.8 1021.1 0.0
10/12:00am S 16 27 - - - - - - - 15.6 1021.0 0.0
 
Date/Time
EST
Wind Sea
Height
m
Swell Vis
km
Cloud Weather Temp
°C
Press
MSL
hPa
Rain since
9am
mm
Dir  Spd
kts
Gust
kts
Height
m
Period
s
Dir
09/11:34pm SSE 17 28 - - - - - - - 16.1 1020.9 0.0
09/11:30pm SSE 16 24 - - - - - - - 16.1 1021.2 0.0
09/11:00pm SSE 17 25 - - - - - - - 16.3 1021.4 0.0
09/10:30pm SSE 17 24 - - - - - - - 16.4 1021.4 0.0
09/10:00pm SSE 20 26 - - - - - - - 16.7 1021.1 0.0
09/09:30pm SSE 20 26 - - - - - - - 16.7 1020.9 0.0
09/09:00pm SSE 21 28 - - - - - - - 16.9 1021.1 0.0
09/08:30pm SSE 21 26 - - - - - - - 16.9 1020.7 0.0
09/08:00pm SE 21 25 - - - - - - - 16.9 1020.8 0.0
09/07:30pm SE 17 21 - - - - - - - 16.9 1020.3 0.0
09/07:00pm SSE 17 20 - - - - - - - 16.6 1020.2 0.0
09/06:30pm SSE 15 18 - - - - - - - 16.4 1020.0 0.0
09/06:00pm SE 14 19 - - - - - - - 16.5 1019.5 0.0
09/05:30pm SE 13 17 - - - - - - - 16.3 1019.2 0.0
09/05:00pm SE 13 17 - - - - - - - 16.5 1018.9 0.0
09/04:30pm SE 13 16 - - - - - - - 16.9 1018.5 0.0
09/04:00pm SE 11 14 - - - - - - - 17.0 1018.3 0.0
09/03:30pm SE 10 12 - - - - - - - 16.9 1018.3 0.0
09/03:00pm SE 9 12 - - - - - - - 17.3 1018.3 0.0
09/02:30pm SE 10 13 - - - - - - - 17.7 1018.2 0.0
09/02:00pm SE 11 13 - - - - - - - 17.6 1018.5 0.0
09/01:30pm SE 10 13 - - - - - - - 18.0 1018.7 0.0
09/01:00pm SSE 10 13 - - - - - - - 18.0 1019.0 0.0
09/12:30pm SSE 11 14 - - - - - - - 17.8 1019.3 0.0
09/12:00pm SSE 9 13 - - - - - - - 18.1 1019.8 0.0
09/11:30am S 9 14 - - - - - - - 17.9 1020.3 0.0
09/11:00am S 9 13 - - - - - - - 17.8 1020.6 0.0
09/10:30am S 10 14 - - - - - - - 17.3 1021.0 0.0
09/10:00am S 11 18 - - - - - - - 16.5 1021.0 0.0
09/09:30am S 11 16 - - - - - - - 16.5 1021.2 0.0
09/09:00am SSW 13 17 - - - - - - - 15.6 1021.0 0.0
09/08:30am SSW 11 16 - - - - - - - 15.5 1020.8 0.0
09/08:00am SSW 11 18 - - - - - - - 15.0 1020.6 0.0
09/07:30am SW 11 15 - - - - - - - 13.4 1020.5 0.0
09/07:00am SW 12 16 - - - - - - - 12.5 1019.9 0.0
09/06:30am SW 14 17 - - - - - - - 12.5 1019.7 0.0
09/06:00am SW 14 18 - - - - - - - 12.5 1019.3 0.0
09/05:30am SW 13 16 - - - - - - - 12.6 1019.0 0.0
09/05:00am SW 13 17 - - - - - - - 12.8 1018.7 0.0
09/04:30am SW 14 17 - - - - - - - 12.9 1018.6 0.0
09/04:00am SW 13 18 - - - - - - - 13.0 1018.6 0.0
09/03:30am SW 14 17 - - - - - - - 13.0 1018.6 0.0
09/03:00am SW 14 16 - - - - - - - 13.0 1018.6 0.0
09/02:30am SW 13 17 - - - - - - - 13.5 1018.5 0.0
09/02:00am SW 14 18 - - - - - - - 13.9 1018.5 0.0
09/01:30am SSW 15 19 - - - - - - - 14.0 1018.7 0.0
09/01:00am SSW 13 16 - - - - - - - 14.2 1018.9 0.0
09/12:30am SSW 13 16 - - - - - - - 14.8 1019.0 0.0
09/12:00am SSW 14 18 - - - - - - - 14.8 1019.0 0.0
 
Date/Time
EST
Wind Sea
Height
m
Swell Vis
km
Cloud Weather Temp
°C
Press
MSL
hPa
Rain since
9am
mm
Dir  Spd
kts
Gust
kts
Height
m
Period
s
Dir
08/11:30pm SSW 12 16 - - - - - - - 15.0 1019.1 0.0
08/11:00pm SSW 13 16 - - - - - - - 15.2 1019.2 0.0
08/10:30pm S 15 19 - - - - - - - 16.1 1019.0 0.0
08/10:00pm SSW 12 14 - - - - - - - 15.4 1019.0 0.0
08/09:30pm SSW 11 13 - - - - - - - 15.4 1019.1 0.0
08/09:00pm SSW 9 11 - - - - - - - 15.6 1019.1 0.0
08/08:30pm SSE 13 16 - - - - - - - 16.9 1019.1 0.0
08/08:00pm SSE 14 17 - - - - - - - 16.6 1018.9 0.0
08/07:30pm SSE 13 17 - - - - - - - 16.7 1018.8 0.0
08/07:00pm SSE 12 15 - - - - - - - 16.5 1018.7 0.0
08/06:30pm SSE 12 15 - - - - - - - 16.4 1018.4 0.0
08/06:00pm SSE 10 13 - - - - - - - 16.4 1018.1 0.0
08/05:30pm SE 9 12 - - - - - - - 15.8 1017.9 0.0
08/05:00pm SSE 10 12 - - - - - - - 16.2 1017.7 0.0
08/04:30pm SE 9 11 - - - - - - - 16.4 1017.4 0.0
08/04:00pm SE 8 10 - - - - - - - 16.7 1017.2 0.0
08/03:30pm SSE 9 11 - - - - - - - 16.9 1016.9 0.0
08/03:00pm SSE 9 12 - - - - - - - 16.9 1016.9 0.0
08/02:30pm SSE 10 15 - - - - - - - 17.3 1017.0 0.0
08/02:00pm S 9 13 - - - - - - - 17.3 1017.2 0.0
08/01:30pm S 10 15 - - - - - - - 17.4 1017.5 0.0
08/01:00pm S 9 12 - - - - - - - 17.7 1017.6 0.0
08/12:30pm S 9 14 - - - - - - - 17.4 1018.0 0.0
08/12:00pm S 9 14 - - - - - - - 17.6 1018.2 0.0
08/11:30am S 10 15 - - - - - - - 17.4 1018.4 0.0
08/11:00am S 9 14 - - - - - - - 17.5 1018.7 0.0
08/10:30am S 11 16 - - - - - - - 17.0 1019.0 0.0
08/10:00am SSW 12 17 - - - - - - - 16.4 1019.3 0.0
08/09:30am SSW 11 17 - - - - - - - 16.2 1019.3 0.0
08/09:00am SW 11 15 - - - - - - - 15.9 1019.2 0.0
08/08:30am SW 11 17 - - - - - - - 14.9 1019.1 0.0
08/08:00am SW 10 15 - - - - - - - 14.1 1018.9 0.0
08/07:30am SW 11 14 - - - - - - - 13.0 1018.7 0.0
08/07:00am SW 13 16 - - - - - - - 12.3 1018.3 0.0
08/06:30am SW 13 17 - - - - - - - 12.0 1017.9 0.0
08/06:00am SW 13 16 - - - - - - - 12.1 1017.6 0.0
08/05:30am SW 14 19 - - - - - - - 12.3 1017.1 0.0
08/05:00am SW 12 16 - - - - - - - 12.2 1016.9 0.0
08/04:30am SW 12 15 - - - - - - - 12.4 1016.6 0.0
08/04:00am SW 11 16 - - - - - - - 12.3 1016.3 0.0
08/03:30am WSW 11 15 - - - - - - - 12.5 1016.2 0.0
08/03:00am SW 11 15 - - - - - - - 12.8 1016.4 0.0
08/02:30am WSW 13 18 - - - - - - - 13.3 1016.3 0.0
08/02:00am SW 13 18 - - - - - - - 13.5 1016.5 0.0
08/01:30am SW 14 19 - - - - - - - 13.8 1016.6 0.0

Other formats

Comma delimited format used in spreadsheet applications
http://www.bom.gov.au/fwo/IDQ60701/IDQ60701.94594.axf

JavaScript Object Notation format (JSON) in row-major order
http://www.bom.gov.au/fwo/IDQ60701/IDQ60701.94594.json

Data quality

Most of these data are generated automatically and are frequently updated. Quality checks on data are not normally performed. It is possible for incorrect values to appear. Refer to information at About Latest Weather Observations and please check the disclaimer before using these data.